Time,TemperatureF,DewpointF,PressureIn,WindDirection,WindDirectionDegrees,WindSpeedMPH,WindSpeedGustMPH,Humidity,HourlyPrecipIn,Conditions,Clouds,dailyrainin,SoftwareType,DateUTC
2013-01-26 00:02:00,31.5,31.0,30.07,West,274,2.0,-999.0,99,-99.99,,,0.00,weatherlink.com 1.10,2013-01-26 05:02:00,
2013-01-26 00:17:00,31.3,31.0,30.06,NNW,340,1.0,-999.0,99,-99.99,,,0.00,weatherlink.com 1.10,2013-01-26 05:17:00,
2013-01-26 00:32:00,31.2,31.0,30.07,South,188,0.0,-999.0,99,-99.99,,,0.00,weatherlink.com 1.10,2013-01-26 05:32:00,
2013-01-26 00:47:00,31.0,31.0,30.07,SW,220,1.0,-999.0,99,-99.99,,,0.00,weatherlink.com 1.10,2013-01-26 05:47:00,
2013-01-26 01:02:00,30.9,31.0,30.07,WSW,239,0.0,-999.0,99,-99.99,,,0.00,weatherlink.com 1.10,2013-01-26 06:02:00,
2013-01-26 01:18:00,30.7,31.0,30.08,SW,223,0.0,-999.0,99,-99.99,,,0.00,weatherlink.com 1.10,2013-01-26 06:18:00,
2013-01-26 01:32:00,30.4,30.0,30.08,West,268,4.0,-999.0,99,-99.99,,,0.00,weatherlink.com 1.10,2013-01-26 06:32:00,
2013-01-26 01:47:00,30.1,30.0,30.08,South,189,1.0,-999.0,99,-99.99,,,0.00,weatherlink.com 1.10,2013-01-26 06:47:00,
2013-01-26 02:02:00,29.8,30.0,30.08,SSW,196,0.0,-999.0,99,-99.99,,,0.00,weatherlink.com 1.10,2013-01-26 07:02:00,
2013-01-26 02:18:00,29.5,29.0,30.08,SE,134,3.0,-999.0,99,-99.99,,,0.00,weatherlink.com 1.10,2013-01-26 07:18:00,
2013-01-26 02:32:00,29.1,29.0,30.07,South,189,1.0,-999.0,99,-99.99,,,0.00,weatherlink.com 1.10,2013-01-26 07:32:00,
2013-01-26 02:47:00,28.8,29.0,30.07,ENE,64,2.0,-999.0,99,-99.99,,,0.00,weatherlink.com 1.10,2013-01-26 07:47:00,
2013-01-26 03:02:00,28.5,28.0,30.07,South,189,6.0,-999.0,99,-99.99,,,0.00,weatherlink.com 1.10,2013-01-26 08:02:00,
2013-01-26 03:18:00,28.1,28.0,30.08,SSE,162,3.0,-999.0,98,-99.99,,,0.00,weatherlink.com 1.10,2013-01-26 08:18:00,
2013-01-26 03:33:00,27.8,27.0,30.08,SE,131,6.0,-999.0,97,-99.99,,,0.00,weatherlink.com 1.10,2013-01-26 08:33:00,
2013-01-26 03:48:00,27.6,27.0,30.08,West,281,5.0,-999.0,97,-99.99,,,0.00,weatherlink.com 1.10,2013-01-26 08:48:00,
2013-01-26 04:04:00,27.5,27.0,30.08,SW,232,2.0,-999.0,97,-99.99,,,0.00,weatherlink.com 1.10,2013-01-26 09:04:00,
2013-01-26 04:18:00,27.3,26.0,30.09,ENE,59,2.0,-999.0,96,-99.99,,,0.00,weatherlink.com 1.10,2013-01-26 09:18:00,
2013-01-26 04:33:00,27.2,26.0,30.09,SE,143,4.0,-999.0,96,-99.99,,,0.00,weatherlink.com 1.10,2013-01-26 09:33:00,
2013-01-26 04:48:00,27.0,26.0,30.09,SSE,160,2.0,-999.0,95,-99.99,,,0.00,weatherlink.com 1.10,2013-01-26 09:48:00,
2013-01-26 05:03:00,26.9,26.0,30.09,WNW,282,2.0,-999.0,95,-99.99,,,0.00,weatherlink.com 1.10,2013-01-26 10:03:00,
2013-01-26 05:18:00,26.9,25.0,30.10,SSE,165,5.0,-999.0,94,-99.99,,,0.00,weatherlink.com 1.10,2013-01-26 10:18:00,
2013-01-26 05:33:00,26.7,25.0,30.05,SE,144,3.0,-999.0,94,-99.99,,,0.00,weatherlink.com 1.10,2013-01-26 10:33:00,
2013-01-26 05:48:00,26.7,25.0,30.05,SSE,158,5.0,-999.0,94,-99.99,,,0.00,weatherlink.com 1.10,2013-01-26 10:48:00,
2013-01-26 06:03:00,26.6,25.0,30.05,NW,308,3.0,-999.0,93,-99.99,,,0.00,weatherlink.com 1.10,2013-01-26 11:03:00,
2013-01-26 06:18:00,26.4,24.0,30.05,SSW,195,8.0,-999.0,92,-99.99,,,0.00,weatherlink.com 1.10,2013-01-26 11:18:00,
2013-01-26 06:33:00,26.3,24.0,30.04,SSW,206,11.0,-999.0,92,-99.99,,,0.00,weatherlink.com 1.10,2013-01-26 11:33:00,
2013-01-26 06:49:00,26.0,24.0,30.05,SE,145,7.0,-999.0,90,-99.99,,,0.00,weatherlink.com 1.10,2013-01-26 11:49:00,
2013-01-26 07:03:00,25.8,23.0,30.06,SE,144,10.0,-999.0,90,-99.99,,,0.00,weatherlink.com 1.10,2013-01-26 12:03:00,
2013-01-26 07:18:00,25.8,23.0,30.07,SSW,195,8.0,-999.0,90,-99.99,,,0.00,weatherlink.com 1.10,2013-01-26 12:18:00,
2013-01-26 07:33:00,25.7,23.0,30.08,WSW,246,12.0,-999.0,90,-99.99,,,0.00,weatherlink.com 1.10,2013-01-26 12:33:00,
2013-01-26 07:48:00,25.6,23.0,30.07,North,356,11.0,-999.0,89,-99.99,,,0.00,weatherlink.com 1.10,2013-01-26 12:48:00,
2013-01-26 08:18:00,25.6,23.0,30.09,SW,215,7.0,-999.0,91,-99.99,,,0.00,weatherlink.com 1.10,2013-01-26 13:18:00,
2013-01-26 08:33:00,25.7,23.0,30.09,South,184,2.0,-999.0,88,-99.99,,,0.00,weatherlink.com 1.10,2013-01-26 13:33:00,
2013-01-26 08:48:00,25.8,23.0,30.11,SSW,203,0.0,-999.0,87,-99.99,,,0.00,weatherlink.com 1.10,2013-01-26 13:48:00,
2013-01-26 09:04:00,26.0,22.0,30.11,South,175,6.0,-999.0,86,-99.99,,,0.00,weatherlink.com 1.10,2013-01-26 14:04:00,
2013-01-26 09:19:00,26.0,22.0,30.12,SW,227,5.0,-999.0,85,-99.99,,,0.00,weatherlink.com 1.10,2013-01-26 14:19:00,
2013-01-26 09:33:00,26.3,22.0,30.14,SW,229,1.0,-999.0,84,-99.99,,,0.00,weatherlink.com 1.10,2013-01-26 14:33:00,
2013-01-26 09:48:00,28.1,23.0,30.14,SW,223,0.0,-999.0,81,-99.99,,,0.00,weatherlink.com 1.10,2013-01-26 14:48:00,
2013-01-26 10:03:00,29.4,24.0,30.14,SSW,210,0.0,-999.0,79,-99.99,,,0.00,weatherlink.com 1.10,2013-01-26 15:03:00,
2013-01-26 10:19:00,29.1,23.0,30.15,SSW,213,0.0,-999.0,78,-99.99,,,0.00,weatherlink.com 1.10,2013-01-26 15:19:00,
2013-01-26 10:33:00,28.5,23.0,30.17,South,178,0.0,-999.0,79,-99.99,,,0.00,weatherlink.com 1.10,2013-01-26 15:33:00,
2013-01-26 10:48:00,28.8,23.0,30.18,SSE,161,2.0,-999.0,78,-99.99,,,0.00,weatherlink.com 1.10,2013-01-26 15:48:00,
2013-01-26 11:04:00,29.0,23.0,30.18,South,185,4.0,-999.0,77,-99.99,,,0.00,weatherlink.com 1.10,2013-01-26 16:04:00,
2013-01-26 11:19:00,29.3,23.0,30.19,SE,145,2.0,-999.0,76,-99.99,,,0.00,weatherlink.com 1.10,2013-01-26 16:19:00,
2013-01-26 11:34:00,29.0,22.0,30.19,SSW,196,5.0,-999.0,76,-99.99,,,0.00,weatherlink.com 1.10,2013-01-26 16:34:00,
2013-01-26 11:49:00,28.7,22.0,30.19,ESE,114,6.0,-999.0,76,-99.99,,,0.00,weatherlink.com 1.10,2013-01-26 16:49:00,
2013-01-26 12:04:00,28.4,22.0,30.18,SSE,167,5.0,-999.0,76,-99.99,,,0.00,weatherlink.com 1.10,2013-01-26 17:04:00,
2013-01-26 12:19:00,28.7,22.0,30.18,West,278,3.0,-999.0,76,-99.99,,,0.00,weatherlink.com 1.10,2013-01-26 17:19:00,
2013-01-26 12:34:00,29.0,22.0,30.16,South,178,5.0,-999.0,75,-99.99,,,0.00,weatherlink.com 1.10,2013-01-26 17:34:00,
2013-01-26 12:49:00,29.7,23.0,30.16,SSE,168,3.0,-999.0,75,-99.99,,,0.00,weatherlink.com 1.10,2013-01-26 17:49:00,
2013-01-26 13:04:00,30.6,23.0,30.16,South,182,6.0,-999.0,72,-99.99,,,0.00,weatherlink.com 1.10,2013-01-26 18:04:00,
2013-01-26 13:19:00,30.4,22.0,30.16,SW,217,2.0,-999.0,71,-99.99,,,0.00,weatherlink.com 1.10,2013-01-26 18:19:00,
2013-01-26 13:34:00,30.7,22.0,30.16,SSE,161,2.0,-999.0,71,-99.99,,,0.00,weatherlink.com 1.10,2013-01-26 18:34:00,
2013-01-26 13:49:00,31.8,23.0,30.16,SW,219,3.0,-999.0,69,-99.99,,,0.00,weatherlink.com 1.10,2013-01-26 18:49:00,
2013-01-26 14:04:00,32.4,23.0,30.14,South,172,6.0,-999.0,69,-99.99,,,0.00,weatherlink.com 1.10,2013-01-26 19:04:00,
2013-01-26 14:19:00,33.1,24.0,30.14,SSE,168,3.0,-999.0,68,-99.99,,,0.00,weatherlink.com 1.10,2013-01-26 19:19:00,
2013-01-26 14:34:00,32.9,23.0,30.15,South,176,6.0,-999.0,68,-99.99,,,0.00,weatherlink.com 1.10,2013-01-26 19:34:00,
2013-01-26 14:49:00,33.4,24.0,30.15,South,184,5.0,-999.0,68,-99.99,,,0.00,weatherlink.com 1.10,2013-01-26 19:49:00,
2013-01-26 15:04:00,34.1,24.0,30.14,NE,45,5.0,-999.0,67,-99.99,,,0.00,weatherlink.com 1.10,2013-01-26 20:04:00,
2013-01-26 15:19:00,35.3,24.0,30.14,SSW,213,0.0,-999.0,64,-99.99,,,0.00,weatherlink.com 1.10,2013-01-26 20:19:00,
2013-01-26 15:34:00,34.6,25.0,30.16,SW,217,0.0,-999.0,67,-99.99,,,0.00,weatherlink.com 1.10,2013-01-26 20:34:00,
2013-01-26 15:49:00,33.5,24.0,30.17,South,175,0.0,-999.0,69,-99.99,,,0.00,weatherlink.com 1.10,2013-01-26 20:49:00,
2013-01-26 16:04:00,33.1,24.0,30.18,SE,131,2.0,-999.0,70,-99.99,,,0.00,weatherlink.com 1.10,2013-01-26 21:04:00,
2013-01-26 16:19:00,32.7,25.0,30.18,North,357,2.0,-999.0,73,-99.99,,,0.00,weatherlink.com 1.10,2013-01-26 21:19:00,
2013-01-26 16:34:00,32.5,25.0,30.18,South,171,6.0,-999.0,73,-99.99,,,0.00,weatherlink.com 1.10,2013-01-26 21:34:00,
2013-01-26 16:49:00,32.1,25.0,30.20,SSW,200,6.0,-999.0,74,-99.99,,,0.00,weatherlink.com 1.10,2013-01-26 21:49:00,
2013-01-26 17:04:00,31.3,25.0,30.20,West,263,5.0,-999.0,77,-99.99,,,0.00,weatherlink.com 1.10,2013-01-26 22:04:00,
2013-01-26 17:19:00,30.4,25.0,30.21,SSW,206,5.0,-999.0,80,-99.99,,,0.00,weatherlink.com 1.10,2013-01-26 22:19:00,
2013-01-26 17:34:00,29.8,25.0,30.22,SSE,168,2.0,-999.0,81,-99.99,,,0.00,weatherlink.com 1.10,2013-01-26 22:34:00,
2013-01-26 17:49:00,29.4,25.0,30.23,South,178,5.0,-999.0,82,-99.99,,,0.00,weatherlink.com 1.10,2013-01-26 22:49:00,
2013-01-26 18:04:00,29.3,25.0,30.24,SSE,161,3.0,-999.0,83,-99.99,,,0.00,weatherlink.com 1.10,2013-01-26 23:04:00,
2013-01-26 18:19:00,29.1,25.0,30.24,SSW,205,3.0,-999.0,83,-99.99,,,0.00,weatherlink.com 1.10,2013-01-26 23:19:00,
2013-01-26 18:34:00,29.0,25.0,30.25,SSW,206,6.0,-999.0,84,-99.99,,,0.00,weatherlink.com 1.10,2013-01-26 23:34:00,
2013-01-26 18:49:00,29.0,25.0,30.25,SE,130,6.0,-999.0,84,-99.99,,,0.00,weatherlink.com 1.10,2013-01-26 23:49:00,
2013-01-26 19:04:00,28.8,25.0,30.25,South,189,6.0,-999.0,84,-99.99,,,0.00,weatherlink.com 1.10,2013-01-27 00:04:00,
2013-01-26 19:19:00,28.7,25.0,30.26,SSW,206,3.0,-999.0,85,-99.99,,,0.00,weatherlink.com 1.10,2013-01-27 00:19:00,
2013-01-26 19:34:00,28.5,25.0,30.26,SSE,165,0.0,-999.0,86,-99.99,,,0.00,weatherlink.com 1.10,2013-01-27 00:34:00,
2013-01-26 19:49:00,28.4,25.0,30.26,South,184,5.0,-999.0,86,-99.99,,,0.00,weatherlink.com 1.10,2013-01-27 00:49:00,
2013-01-26 20:04:00,28.4,25.0,30.26,SSE,167,5.0,-999.0,85,-99.99,,,0.00,weatherlink.com 1.10,2013-01-27 01:04:00,
2013-01-26 20:19:00,28.2,24.0,30.26,SSE,151,4.0,-999.0,85,-99.99,,,0.00,weatherlink.com 1.10,2013-01-27 01:19:00,
2013-01-26 20:34:00,28.2,24.0,30.27,South,181,6.0,-999.0,84,-99.99,,,0.00,weatherlink.com 1.10,2013-01-27 01:34:00,
2013-01-26 20:49:00,28.2,23.0,30.27,SSW,192,4.0,-999.0,81,-99.99,,,0.00,weatherlink.com 1.10,2013-01-27 01:49:00,
2013-01-26 21:04:00,28.7,22.0,30.29,SSW,200,3.0,-999.0,77,-99.99,,,0.00,weatherlink.com 1.10,2013-01-27 02:04:00,
2013-01-26 21:19:00,29.1,22.0,30.29,SSW,202,5.0,-999.0,74,-99.99,,,0.00,weatherlink.com 1.10,2013-01-27 02:19:00,
2013-01-26 21:34:00,29.3,22.0,30.27,SSW,198,3.0,-999.0,73,-99.99,,,0.00,weatherlink.com 1.10,2013-01-27 02:34:00,
2013-01-26 21:49:00,29.1,22.0,30.28,SSW,198,7.0,-999.0,75,-99.99,,,0.00,weatherlink.com 1.10,2013-01-27 02:49:00,
2013-01-26 22:04:00,29.0,22.0,30.28,South,182,5.0,-999.0,75,-99.99,,,0.00,weatherlink.com 1.10,2013-01-27 03:04:00,
2013-01-26 22:19:00,28.8,22.0,30.29,South,182,2.0,-999.0,77,-99.99,,,0.00,weatherlink.com 1.10,2013-01-27 03:19:00,
2013-01-26 22:35:00,28.5,23.0,30.30,SW,215,3.0,-999.0,79,-99.99,,,0.00,weatherlink.com 1.10,2013-01-27 03:35:00,
2013-01-26 22:49:00,28.2,23.0,30.31,WSW,244,4.0,-999.0,80,-99.99,,,0.00,weatherlink.com 1.10,2013-01-27 03:49:00,
2013-01-26 23:04:00,28.5,22.0,30.32,SW,227,3.0,-999.0,77,-99.99,,,0.00,weatherlink.com 1.10,2013-01-27 04:04:00,
2013-01-26 23:19:00,28.8,22.0,30.31,South,189,2.0,-999.0,75,-99.99,,,0.00,weatherlink.com 1.10,2013-01-27 04:19:00,
2013-01-26 23:35:00,29.0,21.0,30.31,SSW,213,0.0,-999.0,71,-99.99,,,0.00,weatherlink.com 1.10,2013-01-27 04:35:00,
2013-01-26 23:50:00,29.4,20.0,30.32,SSW,203,0.0,-999.0,67,-99.99,,,0.00,weatherlink.com 1.10,2013-01-27 04:50:00,